Geneva on the Lake, Ohio
Current Conditions -  °F | °C
As of 6:53 AM on Saturday 25 Oct 2014 (Local Time) from KHZY Reporting Station
Broken Clouds Broken Clouds  
Wind Chill: 47°   Ceiling: 4200
Heat Index: 49°   Visibility: 10mi
Dew Point: 43°   Wind: 6mph
Humidity: 80%   Direction: 190°S
Pressure: 29.91"   Gusts: NA
Location:  41.7762°N, 80.9544°W
Report Text: KHZY 251053Z AUTO 19005KT 10SM BKN042 09/06 A2991 RMK AO2 SLP129 T00940061
Loading
Personal Weather Stations






























Interactive Weather Map
Tropical Storm Tracking
New forecast layout! Learn more

10-Day Weather Forecast

Advertisements
Track Severe Weather on mobile